createdAt,value
2018-06-17T00:00:54.094Z,16.67
2018-06-17T00:03:22.291Z,14.80
2018-06-17T00:05:50.497Z,15.33
2018-06-17T00:08:19.263Z,13.90
2018-06-17T00:10:48.607Z,14.70
2018-06-17T00:13:16.809Z,17.57
2018-06-17T00:15:45.930Z,14.30
2018-06-17T00:18:14.501Z,15.73
2018-06-17T00:20:43.161Z,15.50
2018-06-17T00:23:11.349Z,16.73
2018-06-17T00:25:39.573Z,14.63
2018-06-17T00:28:07.837Z,14.67
2018-06-17T00:30:36.049Z,14.27
2018-06-17T00:33:04.267Z,14.93
2018-06-17T00:35:32.481Z,15.40
2018-06-17T00:38:00.683Z,13.57
2018-06-17T00:40:28.902Z,14.60
2018-06-17T00:42:57.153Z,15.33
2018-06-17T00:45:25.385Z,15.00
2018-06-17T00:47:53.607Z,14.27
2018-06-17T00:50:21.837Z,15.17
2018-06-17T00:52:50.097Z,14.43
2018-06-17T00:55:18.300Z,15.37
2018-06-17T00:57:48.961Z,14.53
2018-06-17T01:00:17.448Z,15.00
2018-06-17T01:02:46.034Z,13.80
2018-06-17T01:05:14.501Z,15.57
2018-06-17T01:07:42.869Z,15.33
2018-06-17T01:10:11.077Z,16.13
2018-06-17T01:12:39.585Z,14.67
2018-06-17T01:15:07.945Z,14.43
2018-06-17T01:17:36.419Z,16.33
2018-06-17T01:20:05.132Z,16.30
2018-06-17T01:22:33.345Z,16.50
2018-06-17T01:25:01.542Z,14.73
2018-06-17T01:27:29.731Z,14.67
2018-06-17T01:29:57.969Z,15.93
2018-06-17T01:32:26.149Z,16.53
2018-06-17T01:34:54.352Z,17.30
2018-06-17T01:37:22.550Z,15.80
2018-06-17T01:39:50.781Z,15.63
2018-06-17T01:42:18.966Z,16.60
2018-06-17T01:44:47.165Z,15.60
2018-06-17T01:47:17.423Z,17.27
2018-06-17T01:49:45.966Z,17.20
2018-06-17T01:52:14.177Z,16.77
2018-06-17T01:54:42.399Z,15.80
2018-06-17T01:57:10.621Z,15.00
2018-06-17T01:59:38.867Z,15.90
2018-06-17T02:02:07.142Z,15.67
2018-06-17T02:04:40.781Z,16.23
2018-06-17T02:07:14.390Z,16.50
2018-06-17T02:09:47.968Z,18.20
2018-06-17T02:12:16.165Z,17.30
2018-06-17T02:14:49.818Z,17.77
2018-06-17T02:17:18.615Z,17.20
2018-06-17T02:19:46.968Z,17.40
2018-06-17T02:22:15.205Z,16.83
2018-06-17T02:24:43.401Z,17.20
2018-06-17T02:27:11.613Z,17.60
2018-06-17T02:29:39.835Z,17.77
2018-06-17T02:32:08.337Z,17.20
2018-06-17T02:34:36.897Z,28.73
2018-06-17T02:37:05.350Z,19.97
2018-06-17T02:39:33.558Z,17.03
2018-06-17T02:42:01.766Z,19.70
2018-06-17T02:44:29.960Z,16.80
2018-06-17T02:47:03.329Z,17.33
2018-06-17T02:49:34.070Z,17.10
2018-06-17T02:52:07.801Z,16.13
2018-06-17T02:54:48.159Z,17.27
2018-06-17T02:57:18.709Z,17.57
2018-06-17T02:59:47.171Z,17.23
2018-06-17T03:02:15.757Z,16.93
2018-06-17T03:04:43.948Z,15.50
2018-06-17T03:07:12.204Z,16.30
2018-06-17T03:09:40.387Z,16.00
2018-06-17T03:12:08.658Z,17.13
2018-06-17T03:14:36.841Z,18.10
2018-06-17T03:17:05.069Z,18.90
2018-06-17T03:19:33.268Z,17.03
2018-06-17T03:22:01.480Z,17.40
2018-06-17T03:24:35.055Z,17.30
2018-06-17T03:27:08.689Z,16.33
2018-06-17T03:29:42.297Z,19.10
2018-06-17T03:32:15.885Z,18.40
2018-06-17T03:34:44.073Z,17.10
2018-06-17T03:37:12.331Z,17.90
2018-06-17T03:39:40.566Z,16.50
2018-06-17T03:42:08.786Z,17.40
2018-06-17T03:44:36.990Z,17.87
2018-06-17T03:47:05.209Z,18.70
2018-06-17T03:49:33.411Z,17.40
2018-06-17T03:52:08.246Z,17.53
2018-06-17T03:54:36.460Z,16.37
2018-06-17T03:57:04.404Z,17.63
2018-06-17T03:59:32.609Z,17.13
2018-06-17T04:02:00.875Z,18.10
2018-06-17T04:04:29.823Z,16.90
2018-06-17T04:06:58.025Z,15.87
2018-06-17T04:09:26.253Z,18.00
2018-06-17T04:11:54.442Z,15.93
2018-06-17T04:14:22.653Z,15.03
2018-06-17T04:16:50.844Z,16.00
2018-06-17T04:19:19.049Z,18.07
2018-06-17T04:21:47.244Z,17.53
2018-06-17T04:24:15.470Z,16.37
2018-06-17T04:26:43.681Z,16.67
2018-06-17T04:29:11.898Z,16.27
2018-06-17T04:31:40.104Z,16.53
2018-06-17T04:34:09.133Z,16.57
2018-06-17T04:36:37.353Z,16.93
2018-06-17T04:39:07.666Z,15.87
2018-06-17T04:41:35.922Z,17.30
2018-06-17T04:44:04.129Z,16.30
2018-06-17T04:46:32.341Z,16.97
2018-06-17T04:49:00.532Z,16.33
2018-06-17T04:51:28.734Z,14.77
2018-06-17T04:53:56.929Z,16.50
2018-06-17T04:56:25.149Z,16.33
2018-06-17T04:58:53.676Z,14.40
2018-06-17T05:01:21.825Z,15.77
2018-06-17T05:03:50.040Z,15.23
2018-06-17T05:06:18.201Z,17.27
2018-06-17T05:08:46.369Z,15.17
2018-06-17T05:11:14.557Z,14.60
2018-06-17T05:13:42.724Z,14.23
2018-06-17T05:16:10.880Z,14.70
2018-06-17T05:18:39.037Z,16.00
2018-06-17T05:21:07.230Z,14.63
2018-06-17T05:23:35.395Z,14.07
2018-06-17T05:26:03.573Z,14.40
2018-06-17T05:28:31.752Z,12.73
2018-06-17T05:31:00.002Z,14.40
2018-06-17T05:33:28.157Z,12.50
2018-06-17T05:35:56.335Z,13.30
2018-06-17T05:38:24.486Z,13.30
2018-06-17T05:40:52.638Z,12.77
2018-06-17T05:43:20.773Z,13.10
2018-06-17T05:45:48.926Z,13.00
2018-06-17T05:48:17.081Z,13.60
2018-06-17T05:50:51.762Z,15.93
2018-06-17T05:53:19.926Z,15.60
2018-06-17T05:58:22.661Z,13.50
2018-06-17T06:00:50.817Z,14.00
2018-06-17T06:03:19.002Z,13.20
2018-06-17T06:05:47.166Z,13.23
2018-06-17T06:08:15.351Z,13.10
2018-06-17T06:10:43.514Z,13.77
2018-06-17T06:13:11.666Z,13.37
2018-06-17T06:15:39.946Z,14.37
2018-06-17T06:18:08.148Z,14.73
2018-06-17T06:20:36.326Z,14.80
2018-06-17T06:23:04.505Z,14.60
2018-06-17T06:25:32.671Z,13.33
2018-06-17T06:28:00.841Z,13.47
2018-06-17T06:30:29.029Z,13.83
2018-06-17T06:32:57.253Z,13.90
2018-06-17T06:35:25.403Z,14.20
2018-06-17T06:37:53.719Z,11.87
2018-06-17T06:40:21.933Z,13.07
2018-06-17T06:42:50.138Z,11.73
2018-06-17T06:45:18.314Z,13.90
2018-06-17T06:47:46.518Z,11.23
2018-06-17T06:50:14.670Z,10.40
2018-06-17T06:52:42.870Z,10.47
2018-06-17T06:55:11.099Z,9.30
2018-06-17T06:57:39.298Z,10.33
2018-06-17T07:00:07.535Z,9.90
2018-06-17T07:02:47.308Z,8.80
2018-06-17T07:05:26.877Z,9.13
2018-06-17T07:08:06.574Z,9.07
2018-06-17T07:10:34.803Z,9.00
2018-06-17T07:13:02.981Z,8.43
2018-06-17T07:15:42.372Z,15.27
2018-06-17T07:18:41.682Z,10.27
2018-06-17T07:21:10.249Z,8.40
2018-06-17T07:23:38.443Z,8.30
2018-06-17T07:26:43.749Z,9.10
2018-06-17T07:29:24.625Z,8.37
2018-06-17T07:31:52.847Z,8.83
2018-06-17T07:34:21.044Z,7.03
2018-06-17T07:36:49.210Z,7.97
2018-06-17T07:40:58.386Z,8.27
2018-06-17T07:43:26.559Z,6.67
2018-06-17T07:45:54.713Z,9.10
2018-06-17T07:49:44.049Z,9.10
2018-06-17T07:52:24.613Z,8.70
2018-06-17T07:54:52.797Z,8.63
2018-06-17T07:57:22.254Z,8.40
2018-06-17T07:59:50.413Z,7.57
2018-06-17T08:02:18.884Z,8.77
2018-06-17T08:04:47.109Z,8.43
2018-06-17T08:07:15.273Z,8.33
2018-06-17T08:09:43.441Z,7.70
2018-06-17T08:12:12.254Z,8.40
2018-06-17T08:14:40.510Z,8.80
2018-06-17T08:17:08.722Z,10.83
2018-06-17T08:19:36.973Z,10.90
2018-06-17T08:22:05.213Z,8.67
2018-06-17T08:24:33.858Z,8.50
2018-06-17T08:27:01.989Z,9.47
2018-06-17T08:29:30.154Z,9.13
2018-06-17T08:31:58.305Z,9.17
2018-06-17T08:34:26.549Z,10.03
2018-06-17T08:36:54.709Z,9.30
2018-06-17T08:39:23.845Z,9.80
2018-06-17T08:41:51.995Z,8.73
2018-06-17T08:44:20.568Z,8.07
2018-06-17T08:46:49.368Z,9.63
2018-06-17T08:49:18.017Z,8.03
2018-06-17T08:51:46.149Z,9.50
2018-06-17T08:54:14.415Z,8.17
2018-06-17T08:56:42.591Z,7.57
2018-06-17T08:59:10.770Z,9.90
2018-06-17T09:01:38.973Z,7.83
2018-06-17T09:04:07.309Z,8.00
2018-06-17T09:06:35.570Z,7.77
2018-06-17T09:09:06.002Z,8.13
2018-06-17T09:11:34.197Z,8.60
2018-06-17T09:14:02.505Z,7.80
2018-06-17T09:16:30.701Z,8.33
2018-06-17T09:18:58.917Z,9.10
2018-06-17T09:21:27.171Z,5.70
2018-06-17T09:23:55.308Z,8.37
2018-06-17T09:26:23.524Z,6.40
2018-06-17T09:28:52.184Z,9.20
2018-06-17T09:31:20.463Z,14.20
2018-06-17T09:33:48.675Z,15.57
2018-06-17T09:36:16.873Z,9.00
2018-06-17T09:38:45.107Z,7.13
2018-06-17T09:41:13.301Z,6.43
2018-06-17T09:43:41.505Z,6.27
2018-06-17T09:46:09.716Z,8.10
2018-06-17T09:48:37.929Z,7.03
2018-06-17T09:51:06.192Z,8.33
2018-06-17T09:53:34.401Z,9.33
2018-06-17T09:56:02.689Z,6.60
2018-06-17T09:58:30.987Z,6.97
2018-06-17T10:00:59.117Z,6.73
2018-06-17T10:03:27.313Z,7.43
2018-06-17T10:05:55.529Z,8.20
2018-06-17T10:08:23.738Z,7.00
2018-06-17T10:10:56.889Z,6.23
2018-06-17T10:13:26.253Z,7.63
2018-06-17T10:15:54.521Z,7.07
2018-06-17T10:18:23.441Z,6.77
2018-06-17T10:20:51.672Z,6.17
2018-06-17T10:23:19.962Z,6.17
2018-06-17T10:25:48.193Z,6.30
2018-06-17T10:28:16.777Z,7.40
2018-06-17T10:30:46.162Z,6.40
2018-06-17T10:33:14.489Z,5.27
2018-06-17T10:35:43.613Z,6.57
2018-06-17T10:38:11.864Z,7.57
2018-06-17T10:40:40.055Z,56.67
2018-06-17T10:43:13.609Z,12.67
2018-06-17T10:45:42.101Z,6.33
2018-06-17T10:48:10.537Z,8.43
2018-06-17T10:50:38.501Z,6.80
2018-06-17T10:53:06.900Z,5.60
2018-06-17T10:55:35.240Z,6.93
2018-06-17T10:58:03.512Z,6.23
2018-06-17T11:00:31.723Z,6.13
2018-06-17T11:02:59.902Z,5.60
2018-06-17T11:05:28.197Z,6.87
2018-06-17T11:07:56.367Z,5.90
2018-06-17T11:10:24.575Z,6.63
2018-06-17T11:12:52.772Z,6.30
2018-06-17T11:15:20.991Z,5.17
2018-06-17T11:17:49.214Z,5.43
2018-06-17T11:20:17.427Z,5.90
2018-06-17T11:22:45.626Z,5.13
2018-06-17T11:25:13.840Z,4.37
2018-06-17T11:27:42.021Z,5.00
2018-06-17T11:30:10.210Z,4.37
2018-06-17T11:32:38.449Z,6.20
2018-06-17T11:35:06.650Z,5.23
2018-06-17T11:37:34.921Z,5.47
2018-06-17T11:40:03.158Z,6.83
2018-06-17T11:42:31.397Z,6.53
2018-06-17T11:44:59.680Z,5.60
2018-06-17T11:47:27.866Z,5.70
2018-06-17T11:49:56.126Z,5.30
2018-06-17T11:52:24.321Z,5.23
2018-06-17T11:54:52.453Z,5.13
2018-06-17T11:57:20.597Z,6.03
2018-06-17T11:59:48.794Z,9.83
2018-06-17T12:02:17.036Z,9.97
2018-06-17T12:04:45.193Z,6.37
2018-06-17T12:07:13.338Z,5.10
2018-06-17T12:09:41.539Z,5.40
2018-06-17T12:12:09.682Z,6.07
2018-06-17T12:14:37.901Z,5.27
2018-06-17T12:17:05.997Z,8.30
2018-06-17T12:19:34.168Z,6.20
2018-06-17T12:22:02.457Z,5.30
2018-06-17T12:24:30.610Z,6.97
2018-06-17T12:26:58.790Z,7.13
2018-06-17T12:29:26.942Z,5.93
2018-06-17T12:31:55.121Z,5.97
2018-06-17T12:34:23.279Z,8.00
2018-06-17T12:36:51.464Z,35.50
2018-06-17T12:39:19.605Z,6.20
2018-06-17T12:41:47.765Z,7.43
2018-06-17T12:44:16.551Z,5.50
2018-06-17T12:46:44.709Z,5.10
2018-06-17T12:49:13.004Z,22.97
2018-06-17T12:51:41.164Z,10.43
2018-06-17T12:54:09.370Z,5.27
2018-06-17T12:56:37.630Z,6.77
2018-06-17T12:59:05.812Z,9.10
2018-06-17T13:01:34.026Z,8.40
2018-06-17T13:04:02.279Z,57.80
2018-06-17T13:06:30.437Z,9.70
2018-06-17T13:08:58.641Z,10.70
2018-06-17T13:11:26.816Z,6.07
2018-06-17T13:13:54.991Z,4.87
2018-06-17T13:16:23.214Z,5.73
2018-06-17T13:18:51.415Z,5.30
2018-06-17T13:21:19.605Z,5.40
2018-06-17T13:23:47.798Z,5.70
2018-06-17T13:26:16.061Z,5.33
2018-06-17T13:28:44.252Z,7.03
2018-06-17T13:31:12.490Z,5.97
2018-06-17T13:33:40.618Z,7.40
2018-06-17T13:36:08.785Z,4.93
2018-06-17T13:38:36.962Z,7.00
2018-06-17T13:41:05.150Z,5.70
2018-06-17T13:43:33.321Z,6.87
2018-06-17T13:46:01.582Z,5.17
2018-06-17T13:48:29.782Z,5.53
2018-06-17T13:50:57.961Z,5.53
2018-06-17T13:53:26.218Z,4.30
2018-06-17T13:55:54.514Z,6.47
2018-06-17T13:58:22.705Z,5.37
2018-06-17T14:00:50.929Z,4.50
2018-06-17T14:03:19.128Z,5.03
2018-06-17T14:05:47.073Z,5.00
2018-06-17T14:08:15.273Z,5.87
2018-06-17T14:10:43.490Z,5.20
2018-06-17T14:13:11.713Z,3.70
2018-06-17T14:15:39.913Z,5.00
2018-06-17T14:18:08.145Z,4.57
2018-06-17T14:20:36.341Z,4.17
2018-06-17T14:23:04.546Z,9.43
2018-06-17T14:25:32.734Z,6.03
2018-06-17T14:28:00.957Z,8.20
2018-06-17T14:30:29.158Z,5.23
2018-06-17T14:32:57.346Z,5.03
2018-06-17T14:35:25.750Z,4.83
2018-06-17T14:37:53.974Z,4.20
2018-06-17T14:40:22.189Z,4.53
2018-06-17T14:42:55.862Z,4.83
2018-06-17T14:45:29.542Z,5.30
2018-06-17T14:48:03.153Z,3.83
2018-06-17T14:50:36.790Z,5.60
2018-06-17T14:53:07.126Z,4.73
2018-06-17T14:55:35.302Z,4.50
2018-06-17T14:58:03.537Z,3.97
2018-06-17T15:00:31.794Z,5.23
2018-06-17T15:02:59.962Z,5.37
2018-06-17T15:05:28.142Z,4.60
2018-06-17T15:07:56.298Z,5.03
2018-06-17T15:10:24.493Z,5.50
2018-06-17T15:12:52.665Z,4.10
2018-06-17T15:15:20.898Z,4.57
2018-06-17T15:17:49.045Z,5.97
2018-06-17T15:20:17.267Z,6.67
2018-06-17T15:22:45.458Z,3.90
2018-06-17T15:25:13.815Z,3.93
2018-06-17T15:27:41.967Z,5.37
2018-06-17T15:30:10.134Z,3.67
2018-06-17T15:32:43.826Z,4.13
2018-06-17T15:36:20.006Z,3.37
2018-06-17T15:38:57.311Z,4.00
2018-06-17T15:41:26.677Z,3.87
2018-06-17T15:43:57.068Z,3.73
2018-06-17T15:46:25.778Z,3.43
2018-06-17T15:48:54.007Z,3.90
2018-06-17T15:51:22.154Z,4.17
2018-06-17T15:53:50.387Z,5.90
2018-06-17T15:56:18.589Z,6.43
2018-06-17T15:58:46.779Z,4.50
2018-06-17T16:01:15.268Z,5.10
2018-06-17T16:03:43.479Z,4.20
2018-06-17T16:06:11.661Z,3.50
2018-06-17T16:08:39.884Z,4.77
2018-06-17T16:11:08.115Z,5.83
2018-06-17T16:13:41.693Z,3.90
2018-06-17T16:16:15.403Z,3.43
2018-06-17T16:18:48.898Z,3.50
2018-06-17T16:21:17.207Z,5.60
2018-06-17T16:23:45.538Z,6.70
2018-06-17T16:26:13.751Z,4.33
2018-06-17T16:28:42.078Z,5.03
2018-06-17T16:31:10.293Z,4.23
2018-06-17T16:33:38.766Z,4.60
2018-06-17T16:36:06.981Z,4.00
2018-06-17T16:38:35.235Z,3.40
2018-06-17T16:41:03.462Z,4.43
2018-06-17T16:43:31.708Z,4.13
2018-06-17T16:45:59.957Z,5.67
2018-06-17T16:48:28.162Z,4.43
2018-06-17T16:52:04.559Z,4.63
2018-06-17T16:54:38.177Z,6.23
2018-06-17T16:57:11.755Z,6.93
2018-06-17T16:59:45.432Z,3.73
2018-06-17T17:02:13.631Z,5.00
2018-06-17T17:04:41.885Z,4.57
2018-06-17T17:07:10.117Z,6.70
2018-06-17T17:09:38.309Z,5.87
2018-06-17T17:12:06.567Z,5.43
2018-06-17T17:14:34.833Z,5.47
2018-06-17T17:17:03.025Z,4.50
2018-06-17T17:19:31.200Z,4.00
2018-06-17T17:21:59.458Z,5.90
2018-06-17T17:24:27.669Z,4.83
2018-06-17T17:26:55.934Z,4.83
2018-06-17T17:29:24.198Z,4.73
2018-06-17T17:31:57.886Z,4.80
2018-06-17T17:34:31.666Z,4.57
2018-06-17T17:37:06.598Z,5.03
2018-06-17T17:39:40.224Z,6.07
2018-06-17T17:42:08.471Z,3.33
2018-06-17T17:44:42.344Z,4.70
2018-06-17T17:47:16.098Z,7.33
2018-06-17T17:49:44.362Z,5.77
2018-06-17T17:52:12.627Z,10.40
2018-06-17T17:54:40.905Z,4.37
2018-06-17T17:57:09.188Z,5.57
2018-06-17T17:59:37.450Z,5.13
2018-06-17T18:02:05.973Z,4.90
2018-06-17T18:04:34.201Z,7.73
2018-06-17T18:07:02.914Z,3.70
2018-06-17T18:09:31.460Z,5.63
2018-06-17T18:12:00.001Z,5.70
2018-06-17T18:14:28.594Z,7.93
2018-06-17T18:16:57.133Z,4.10
2018-06-17T18:19:25.458Z,5.00
2018-06-17T18:21:53.685Z,4.93
2018-06-17T18:24:21.885Z,6.10
2018-06-17T18:26:55.375Z,4.20
2018-06-17T18:29:29.136Z,4.90
2018-06-17T18:32:02.830Z,3.87
2018-06-17T18:34:36.633Z,3.97
2018-06-17T18:37:05.060Z,4.37
2018-06-17T18:39:33.274Z,4.37
2018-06-17T18:42:01.489Z,5.23
2018-06-17T18:44:29.705Z,4.20
2018-06-17T18:46:57.917Z,3.97
2018-06-17T18:49:26.121Z,5.33
2018-06-17T18:51:54.351Z,5.37
2018-06-17T18:54:22.532Z,4.80
2018-06-17T18:56:51.070Z,3.57
2018-06-17T18:59:19.234Z,6.70
2018-06-17T19:01:47.517Z,8.80
2018-06-17T19:04:15.704Z,3.93
2018-06-17T19:06:43.905Z,4.37
2018-06-17T19:09:17.581Z,4.97
2018-06-17T19:11:51.238Z,4.47
2018-06-17T19:14:24.594Z,3.83
2018-06-17T19:16:58.282Z,3.83
2018-06-17T19:19:26.501Z,3.10
2018-06-17T19:21:54.920Z,5.43
2018-06-17T19:24:23.070Z,7.10
2018-06-17T19:26:51.245Z,3.97
2018-06-17T19:29:19.892Z,5.10
2018-06-17T19:31:48.325Z,3.17
2018-06-17T19:34:16.506Z,5.43
2018-06-17T19:36:44.697Z,3.87
2018-06-17T19:39:12.941Z,3.27
2018-06-17T19:41:41.121Z,4.87
2018-06-17T19:44:09.322Z,5.53
2018-06-17T19:46:37.511Z,7.23
2018-06-17T19:49:05.819Z,4.40
2018-06-17T19:51:39.730Z,4.10
2018-06-17T19:54:13.289Z,4.83
2018-06-17T19:56:46.829Z,3.60
2018-06-17T19:59:20.534Z,5.17
2018-06-17T20:01:48.736Z,3.30
2018-06-17T20:04:16.981Z,4.00
2018-06-17T20:06:45.182Z,6.33
2018-06-17T20:09:13.633Z,4.80
2018-06-17T20:11:41.874Z,5.60
2018-06-17T20:14:10.031Z,7.70
2018-06-17T20:16:38.356Z,4.43
2018-06-17T20:19:06.645Z,4.37
2018-06-17T20:21:34.813Z,6.00
2018-06-17T20:24:03.110Z,5.03
2018-06-17T20:26:31.316Z,4.10
2018-06-17T20:28:59.485Z,5.10
2018-06-17T20:31:27.689Z,4.90
2018-06-17T20:34:01.230Z,6.07
2018-06-17T20:36:34.602Z,5.83
2018-06-17T20:39:08.240Z,6.60
2018-06-17T20:41:41.764Z,6.37
2018-06-17T20:44:09.921Z,6.23
2018-06-17T20:46:38.138Z,4.20
2018-06-17T20:49:06.294Z,8.40
2018-06-17T20:51:34.498Z,4.73
2018-06-17T20:54:02.782Z,5.63
2018-06-17T20:56:31.045Z,4.50
2018-06-17T20:58:59.246Z,5.80
2018-06-17T21:01:27.460Z,7.70
2018-06-17T21:03:55.664Z,4.20
2018-06-17T21:06:24.121Z,7.70
2018-06-17T21:08:52.313Z,9.13
2018-06-17T21:11:20.543Z,7.70
2018-06-17T21:13:49.177Z,19.70
2018-06-17T21:16:17.656Z,8.90
2018-06-17T21:18:51.292Z,9.83
2018-06-17T21:21:25.044Z,5.20
2018-06-17T21:23:58.580Z,7.30
2018-06-17T21:26:32.169Z,4.77
2018-06-17T21:29:00.505Z,5.47
2018-06-17T21:31:28.741Z,5.23
2018-06-17T21:33:57.117Z,5.93
2018-06-17T21:36:25.311Z,5.63
2018-06-17T21:38:53.504Z,6.07
2018-06-17T21:41:21.697Z,5.93
2018-06-17T21:43:49.925Z,5.13
2018-06-17T21:46:18.117Z,4.50
2018-06-17T21:48:46.450Z,5.47
2018-06-17T21:51:14.650Z,5.50
2018-06-17T21:53:43.358Z,5.13
2018-06-17T21:56:11.578Z,4.63
2018-06-17T21:58:47.722Z,6.90
2018-06-17T22:01:16.519Z,5.90
2018-06-17T22:03:44.981Z,4.90
2018-06-17T22:06:13.208Z,6.70
2018-06-17T22:08:46.922Z,6.07
2018-06-17T22:11:20.546Z,5.83
2018-06-17T22:13:54.126Z,4.73
2018-06-17T22:16:27.693Z,6.57
2018-06-17T22:18:55.902Z,5.73
2018-06-17T22:21:24.105Z,6.10
2018-06-17T22:23:52.298Z,7.50
2018-06-17T22:26:20.487Z,5.77
2018-06-17T22:28:49.014Z,7.60
2018-06-17T22:31:17.230Z,6.20
2018-06-17T22:33:45.430Z,4.70
2018-06-17T22:36:13.609Z,38.47
2018-06-17T22:38:41.795Z,15.17
2018-06-17T22:41:09.998Z,8.43
2018-06-17T22:43:38.173Z,4.97
2018-06-17T22:46:06.487Z,8.43
2018-06-17T22:48:34.677Z,4.53
2018-06-17T22:51:02.883Z,5.60
2018-06-17T22:53:42.439Z,5.50
2018-06-17T22:56:15.924Z,10.47
2018-06-17T22:58:49.441Z,10.93
2018-06-17T23:01:22.927Z,4.47
2018-06-17T23:03:56.600Z,6.77
2018-06-17T23:06:30.254Z,8.30
2018-06-17T23:09:03.938Z,5.03
2018-06-17T23:11:32.085Z,4.73
2018-06-17T23:14:00.213Z,6.50
2018-06-17T23:16:28.372Z,8.83
2018-06-17T23:18:56.530Z,4.77
2018-06-17T23:21:24.706Z,5.53
2018-06-17T23:23:53.038Z,6.60
2018-06-17T23:26:21.208Z,5.13
2018-06-17T23:28:49.361Z,4.93
2018-06-17T23:31:17.541Z,5.37
2018-06-17T23:33:45.698Z,7.97
2018-06-17T23:38:48.497Z,5.57
2018-06-17T23:41:16.650Z,7.00
2018-06-17T23:43:46.108Z,5.50
2018-06-17T23:46:19.677Z,6.03
2018-06-17T23:48:53.417Z,5.77
2018-06-17T23:51:27.020Z,6.10
2018-06-17T23:54:00.532Z,6.30
2018-06-17T23:56:28.473Z,8.50
2018-06-17T23:58:56.637Z,5.30
